createdAt,value
2023-01-13T00:00:50.792Z,98496.66
2023-01-13T00:03:22.963Z,98502.25
2023-01-13T00:05:49.678Z,98497.50
2023-01-13T00:08:16.588Z,98497.72
2023-01-13T00:10:46.926Z,98495.94
2023-01-13T00:13:14.114Z,98487.97
2023-01-13T00:15:40.810Z,98493.25
2023-01-13T00:18:07.868Z,98499.34
2023-01-13T00:20:34.533Z,98484.19
2023-01-13T00:23:01.706Z,98487.88
2023-01-13T00:25:28.491Z,98485.06
2023-01-13T00:27:55.504Z,98481.72
2023-01-13T00:30:22.167Z,98479.19
2023-01-13T00:32:49.134Z,98476.34
2023-01-13T00:35:15.852Z,98482.94
2023-01-13T00:37:42.831Z,98482.59
2023-01-13T00:40:10.324Z,98480.88
2023-01-13T00:42:56.023Z,98477.34
2023-01-13T00:45:22.727Z,98476.50
2023-01-13T00:47:49.684Z,98473.03
2023-01-13T00:50:16.528Z,98478.53
2023-01-13T00:52:43.524Z,98478.31
2023-01-13T00:55:10.244Z,98481.31
2023-01-13T00:57:37.233Z,98487.56
2023-01-13T01:00:04.457Z,98485.63
2023-01-13T01:02:31.504Z,98484.88
2023-01-13T01:05:09.895Z,98485.41
2023-01-13T01:07:36.881Z,98487.56
2023-01-13T01:10:03.861Z,98465.19
2023-01-13T01:12:30.836Z,98466.19
2023-01-13T01:14:57.478Z,98458.88
2023-01-13T01:17:24.514Z,98471.66
2023-01-13T01:19:51.211Z,98464.56
2023-01-13T01:22:18.191Z,98475.19
2023-01-13T01:24:44.842Z,98471.66
2023-01-13T01:27:11.812Z,98468.56
2023-01-13T01:29:38.516Z,98461.88
2023-01-13T01:32:05.821Z,98465.66
2023-01-13T01:34:32.628Z,98470.16
2023-01-13T01:36:59.591Z,98458.69
2023-01-13T01:39:26.259Z,98453.09
2023-01-13T01:42:11.719Z,98450.72
2023-01-13T01:44:56.967Z,98451.63
2023-01-13T01:47:24.007Z,98454.28
2023-01-13T01:49:50.745Z,98440.97
2023-01-13T01:52:29.227Z,98444.94
2023-01-13T01:55:08.868Z,98442.69
2023-01-13T01:57:35.863Z,98430.88
2023-01-13T02:00:03.973Z,98420.47
2023-01-13T02:02:31.008Z,98418.63
2023-01-13T02:04:57.799Z,98417.66
2023-01-13T02:07:29.702Z,98421.56
2023-01-13T02:09:56.925Z,98424.97
2023-01-13T02:12:30.076Z,98413.50
2023-01-13T02:14:58.934Z,98415.31
2023-01-13T02:17:50.581Z,98415.84
2023-01-13T02:20:26.034Z,98413.25
2023-01-13T02:22:58.778Z,98408.00
2023-01-13T02:25:34.680Z,98399.72
2023-01-13T02:28:23.086Z,98391.66
2023-01-13T02:31:25.975Z,98388.13
2023-01-13T02:34:04.946Z,98394.47
2023-01-13T02:36:52.353Z,98383.63
2023-01-13T02:39:23.885Z,98387.91
2023-01-13T02:42:16.325Z,98387.41
2023-01-13T02:44:48.494Z,98392.78
2023-01-13T02:47:18.915Z,98388.97
2023-01-13T02:50:09.012Z,98388.13
2023-01-13T02:52:53.149Z,98381.69
2023-01-13T02:55:26.839Z,98384.25
2023-01-13T02:57:53.500Z,98382.66
2023-01-13T03:00:20.611Z,98383.63
2023-01-13T03:02:48.688Z,98387.06
2023-01-13T03:05:16.208Z,98383.41
2023-01-13T03:08:04.870Z,98376.34
2023-01-13T03:10:50.116Z,98384.50
2023-01-13T03:13:33.163Z,98382.56
2023-01-13T03:16:03.970Z,98385.34
2023-01-13T03:18:41.528Z,98386.19
2023-01-13T03:21:17.586Z,98386.31
2023-01-13T03:24:09.762Z,98388.03
2023-01-13T03:26:43.964Z,98393.50
2023-01-13T03:29:30.355Z,98377.41
2023-01-13T03:32:14.608Z,98378.47
2023-01-13T03:34:50.570Z,98379.34
2023-01-13T03:37:20.923Z,98377.41
2023-01-13T03:39:50.692Z,98379.34
2023-01-13T03:42:20.772Z,98378.25
2023-01-13T03:44:50.948Z,98379.13
2023-01-13T03:47:27.904Z,98375.78
2023-01-13T03:50:02.018Z,98372.03
2023-01-13T03:52:49.509Z,98369.47
2023-01-13T03:55:21.157Z,98372.88
2023-01-13T03:57:53.955Z,98364.09
2023-01-13T04:00:22.695Z,98375.78
2023-01-13T04:03:04.493Z,98373.97
2023-01-13T04:05:31.593Z,98379.47
2023-01-13T04:08:24.982Z,98369.00
2023-01-13T04:11:10.150Z,98373.09
2023-01-13T04:13:38.189Z,98371.06
2023-01-13T04:16:06.355Z,98356.78
2023-01-13T04:18:33.757Z,98362.03
2023-01-13T04:21:01.257Z,98357.66
2023-01-13T04:23:28.620Z,98368.38
2023-01-13T04:25:55.419Z,98362.03
2023-01-13T04:28:22.603Z,98355.69
2023-01-13T04:30:49.317Z,98363.88
2023-01-13T04:33:16.899Z,98358.38
2023-01-13T04:35:44.364Z,98357.53
2023-01-13T04:38:13.427Z,98368.03
2023-01-13T04:40:41.000Z,98359.75
2023-01-13T04:43:08.010Z,98364.59
2023-01-13T04:45:34.824Z,98362.66
2023-01-13T04:48:01.901Z,98370.50
2023-01-13T04:50:28.638Z,98376.75
2023-01-13T04:52:55.740Z,98369.63
2023-01-13T04:55:23.298Z,98371.00
2023-01-13T04:57:50.332Z,98365.00
2023-01-13T05:00:18.392Z,98367.59
2023-01-13T05:02:45.367Z,98366.72
2023-01-13T05:05:12.186Z,98358.69
2023-01-13T05:07:39.194Z,98360.47
2023-01-13T05:10:06.269Z,98360.25
2023-01-13T05:12:59.481Z,98353.09
2023-01-13T05:15:44.910Z,98357.56
2023-01-13T05:18:11.960Z,98348.34
2023-01-13T05:20:38.617Z,98358.47
2023-01-13T05:23:24.205Z,98354.03
2023-01-13T05:25:50.914Z,98359.19
2023-01-13T05:28:17.880Z,98352.97
2023-01-13T05:30:46.153Z,98359.31
2023-01-13T05:33:15.284Z,98359.81
2023-01-13T05:35:42.736Z,98368.94
2023-01-13T05:38:09.690Z,98358.09
2023-01-13T05:40:56.444Z,98360.78
2023-01-13T05:43:24.766Z,98359.72
2023-01-13T05:46:01.929Z,98373.88
2023-01-13T05:48:36.783Z,98369.34
2023-01-13T05:51:04.190Z,98366.66
2023-01-13T05:53:31.179Z,98374.38
2023-01-13T05:55:58.015Z,98381.16
2023-01-13T05:58:25.839Z,98369.06
2023-01-13T06:00:52.775Z,98369.41
2023-01-13T06:03:20.254Z,98375.22
2023-01-13T06:05:47.571Z,98375.78
2023-01-13T06:08:14.655Z,98368.16
2023-01-13T06:10:41.342Z,98368.78
2023-01-13T06:13:08.400Z,98362.69
2023-01-13T06:15:35.086Z,98366.22
2023-01-13T06:18:03.306Z,98373.31
2023-01-13T06:20:30.011Z,98376.63
2023-01-13T06:22:57.105Z,98370.63
2023-01-13T06:25:29.758Z,98382.72
2023-01-13T06:27:56.902Z,98383.94
2023-01-13T06:30:23.568Z,98385.31
2023-01-13T06:32:52.814Z,98386.63
2023-01-13T06:35:22.468Z,98379.41
2023-01-13T06:37:49.783Z,98377.81
2023-01-13T06:40:16.484Z,98381.88
2023-01-13T06:43:02.208Z,98390.16
2023-01-13T06:45:29.043Z,98384.56
2023-01-13T06:47:58.432Z,98380.78
2023-01-13T06:50:25.390Z,98378.09
2023-01-13T06:52:52.335Z,98372.09
2023-01-13T06:55:19.007Z,98367.56
2023-01-13T06:57:53.352Z,98370.25
2023-01-13T07:00:20.676Z,98381.75
2023-01-13T07:02:47.890Z,98387.03
2023-01-13T07:05:14.971Z,98382.50
2023-01-13T07:07:42.029Z,98383.69
2023-01-13T07:10:11.291Z,98374.66
2023-01-13T07:12:56.985Z,98388.75
2023-01-13T07:15:23.799Z,98404.88
2023-01-13T07:17:50.900Z,98392.31
2023-01-13T07:20:17.833Z,98388.75
2023-01-13T07:22:45.102Z,98394.13
2023-01-13T07:25:11.968Z,98395.94
2023-01-13T07:27:38.910Z,98393.06
2023-01-13T07:30:06.289Z,98382.31
2023-01-13T07:32:33.660Z,98381.56
2023-01-13T07:35:05.354Z,98374.38
2023-01-13T07:37:36.240Z,98369.72
2023-01-13T07:40:04.417Z,98374.13
2023-01-13T07:42:50.010Z,98371.56
2023-01-13T07:45:16.753Z,98369.72
2023-01-13T07:47:43.729Z,98371.75
2023-01-13T07:50:10.941Z,98365.97
2023-01-13T07:52:37.900Z,98372.19
2023-01-13T07:55:04.860Z,98376.59
2023-01-13T07:57:31.895Z,98373.03
2023-01-13T07:59:58.629Z,98385.63
2023-01-13T08:02:25.750Z,98379.41
2023-01-13T08:04:52.589Z,98379.41
2023-01-13T08:07:19.864Z,98383.44
2023-01-13T08:09:46.642Z,98387.47
2023-01-13T08:12:32.241Z,98385.38
2023-01-13T08:14:58.959Z,98386.25
2023-01-13T08:17:26.030Z,98386.25
2023-01-13T08:19:52.732Z,98380.03
2023-01-13T08:22:19.779Z,98374.53
2023-01-13T08:24:46.510Z,98366.47
2023-01-13T08:27:13.469Z,98371.84
2023-01-13T08:29:40.178Z,98377.34
2023-01-13T08:32:07.234Z,98380.03
2023-01-13T08:34:33.936Z,98386.34
2023-01-13T08:37:00.929Z,98389.03
2023-01-13T08:39:27.709Z,98390.66
2023-01-13T08:41:58.602Z,98394.19
2023-01-13T08:44:26.435Z,98393.56
2023-01-13T08:46:53.612Z,98389.16
2023-01-13T08:49:20.278Z,98396.13
2023-01-13T08:51:47.280Z,98396.97
2023-01-13T08:54:14.155Z,98390.13
2023-01-13T08:56:42.542Z,98391.00
2023-01-13T08:59:16.345Z,98398.44
2023-01-13T09:01:43.818Z,98391.84
2023-01-13T09:04:18.680Z,98398.94
2023-01-13T09:06:45.923Z,98401.75
2023-01-13T09:09:12.751Z,98398.09
2023-01-13T09:12:00.712Z,98402.47
2023-01-13T09:14:30.870Z,98406.00
2023-01-13T09:16:59.351Z,98404.81
2023-01-13T09:19:26.898Z,98395.91
2023-01-13T09:21:54.757Z,98394.91
2023-01-13T09:24:22.767Z,98391.03
2023-01-13T09:26:50.062Z,98381.25
2023-01-13T09:29:16.872Z,98380.41
2023-01-13T09:31:44.355Z,98382.97
2023-01-13T09:34:37.392Z,98365.03
2023-01-13T09:37:05.387Z,98370.28
2023-01-13T09:39:33.178Z,98374.81
2023-01-13T09:42:22.421Z,98372.97
2023-01-13T09:45:29.239Z,98372.63
2023-01-13T09:48:27.950Z,98369.69
2023-01-13T09:51:14.413Z,98366.03
2023-01-13T09:53:55.776Z,98373.03
2023-01-13T09:56:25.505Z,98363.13
2023-01-13T09:58:52.599Z,98368.16
2023-01-13T10:01:37.487Z,98362.66
2023-01-13T10:04:11.375Z,98345.19
2023-01-13T10:06:39.127Z,98352.28
2023-01-13T10:09:06.144Z,98353.97
2023-01-13T10:11:54.548Z,98349.47
2023-01-13T10:14:38.203Z,98345.19
2023-01-13T10:17:18.039Z,98356.56
2023-01-13T10:19:49.073Z,98345.09
2023-01-13T10:22:23.757Z,98354.50
2023-01-13T10:25:20.481Z,98351.22
2023-01-13T10:27:54.164Z,98348.75
2023-01-13T10:30:22.451Z,98352.53
2023-01-13T10:32:52.231Z,98343.16
2023-01-13T10:35:56.942Z,98330.94
2023-01-13T10:38:35.872Z,98333.88
2023-01-13T10:41:11.997Z,98337.78
2023-01-13T10:43:38.670Z,98325.41
2023-01-13T10:46:13.581Z,98322.72
2023-01-13T10:48:53.838Z,98329.44
2023-01-13T10:51:22.226Z,98320.41
2023-01-13T10:53:57.378Z,98330.09
2023-01-13T10:56:26.636Z,98326.03
2023-01-13T10:58:55.360Z,98322.41
2023-01-13T11:01:26.552Z,98323.34
2023-01-13T11:03:56.060Z,98323.97
2023-01-13T11:06:28.641Z,98314.22
2023-01-13T11:08:58.362Z,98316.63
2023-01-13T11:11:39.357Z,98307.47
2023-01-13T11:14:33.735Z,98310.03
2023-01-13T11:17:05.658Z,98300.25
2023-01-13T11:20:11.660Z,98309.91
2023-01-13T11:22:47.326Z,98296.34
2023-01-13T11:25:18.592Z,98290.69
2023-01-13T11:28:02.736Z,98289.84
2023-01-13T11:30:37.314Z,98288.88
2023-01-13T11:33:04.972Z,98280.56
2023-01-13T11:35:32.070Z,98277.75
2023-01-13T11:38:01.971Z,98279.31
2023-01-13T11:40:51.581Z,98292.66
2023-01-13T11:43:36.567Z,98288.13
2023-01-13T11:46:03.263Z,98278.13
2023-01-13T11:48:32.470Z,98271.00
2023-01-13T11:51:24.332Z,98273.56
2023-01-13T11:54:29.951Z,98273.69
2023-01-13T11:57:23.821Z,98270.53
2023-01-13T11:59:56.965Z,98277.47
2023-01-13T12:02:39.659Z,98272.94
2023-01-13T12:05:24.978Z,98281.63
2023-01-13T12:08:13.610Z,98278.81
2023-01-13T12:11:06.779Z,98289.44
2023-01-13T12:13:52.038Z,98273.16
2023-01-13T12:16:31.649Z,98282.38
2023-01-13T12:19:24.668Z,98277.47
2023-01-13T12:21:59.408Z,98277.47
2023-01-13T12:24:30.746Z,98280.88
2023-01-13T12:26:59.965Z,98274.41
2023-01-13T12:29:31.412Z,98279.78
2023-01-13T12:31:59.455Z,98274.28
2023-01-13T12:34:43.663Z,98275.25
2023-01-13T12:37:21.992Z,98274.28
2023-01-13T12:39:51.415Z,98264.22
2023-01-13T12:42:41.046Z,98256.03
2023-01-13T12:45:10.893Z,98262.00
2023-01-13T12:47:44.760Z,98260.41
2023-01-13T12:50:23.889Z,98262.13
2023-01-13T12:53:01.097Z,98270.69
2023-01-13T12:55:28.433Z,98275.09
2023-01-13T12:58:16.226Z,98272.13
2023-01-13T13:00:44.779Z,98282.78
2023-01-13T13:03:15.475Z,98284.75
2023-01-13T13:06:19.867Z,98289.28
2023-01-13T13:09:04.476Z,98291.31
2023-01-13T13:11:49.965Z,98282.78
2023-01-13T13:14:18.658Z,98286.22
2023-01-13T13:16:55.145Z,98282.78
2023-01-13T13:19:22.251Z,98283.53
2023-01-13T13:22:14.195Z,98280.94
2023-01-13T13:25:03.893Z,98286.94
2023-01-13T13:27:49.360Z,98288.91
2023-01-13T13:30:24.168Z,98286.22
2023-01-13T13:33:02.577Z,98290.72
2023-01-13T13:35:52.368Z,98284.25
2023-01-13T13:39:09.698Z,98293.03
2023-01-13T13:42:00.796Z,98283.13
2023-01-13T13:44:50.772Z,98281.44
2023-01-13T13:47:17.925Z,98287.66
2023-01-13T13:49:52.308Z,98287.53
2023-01-13T13:52:26.685Z,98299.28
2023-01-13T13:54:55.868Z,98285.81
2023-01-13T13:57:35.215Z,98278.72
2023-01-13T14:00:06.309Z,98281.31
2023-01-13T14:02:35.999Z,98290.97
2023-01-13T14:05:14.935Z,98290.22
2023-01-13T14:07:43.961Z,98292.19
2023-01-13T14:10:20.294Z,98287.44
2023-01-13T14:12:47.467Z,98293.88
2023-01-13T14:15:34.342Z,98291.19
2023-01-13T14:18:06.093Z,98292.06
2023-01-13T14:20:34.524Z,98297.38
2023-01-13T14:23:01.816Z,98299.28
2023-01-13T14:25:31.901Z,98308.34
2023-01-13T14:28:24.679Z,98303.81
2023-01-13T14:30:51.681Z,98300.16
2023-01-13T14:33:27.205Z,98298.56
2023-01-13T14:36:16.065Z,98297.59
2023-01-13T14:38:45.676Z,98297.59
2023-01-13T14:41:15.469Z,98291.59
2023-01-13T14:43:44.240Z,98287.78
2023-01-13T14:46:11.089Z,98294.41
2023-01-13T14:48:39.516Z,98290.84
2023-01-13T14:51:10.787Z,98288.28
2023-01-13T14:53:43.771Z,98299.31
2023-01-13T14:56:38.591Z,98303.00
2023-01-13T14:59:34.525Z,98310.94
2023-01-13T15:02:29.436Z,98318.41
2023-01-13T15:04:59.272Z,98315.00
2023-01-13T15:07:30.493Z,98307.31
2023-01-13T15:10:01.747Z,98312.69
2023-01-13T15:12:35.906Z,98299.09
2023-01-13T15:15:04.210Z,98312.81
2023-01-13T15:17:31.200Z,98302.75
2023-01-13T15:20:00.826Z,98313.53
2023-01-13T15:22:29.066Z,98299.59
2023-01-13T15:24:57.436Z,98310.84
2023-01-13T15:27:25.843Z,98321.72
2023-01-13T15:29:52.965Z,98314.38
2023-01-13T15:32:20.471Z,98310.34
2023-01-13T15:34:47.870Z,98314.91
2023-01-13T15:37:15.465Z,98313.91
2023-01-13T15:39:42.977Z,98312.44
2023-01-13T15:42:31.053Z,98317.84
2023-01-13T15:45:16.679Z,98311.31
2023-01-13T15:47:43.529Z,98324.06
2023-01-13T15:50:15.101Z,98314.91
2023-01-13T15:52:41.966Z,98317.72
2023-01-13T15:55:09.272Z,98324.78
2023-01-13T15:57:37.570Z,98319.56
2023-01-13T16:00:08.287Z,98321.38
2023-01-13T16:02:35.088Z,98317.84
2023-01-13T16:05:02.145Z,98320.66
2023-01-13T16:07:28.962Z,98320.78
2023-01-13T16:09:56.403Z,98314.53
2023-01-13T16:12:23.217Z,98331.91
2023-01-13T16:14:50.336Z,98325.53
2023-01-13T16:17:18.908Z,98332.78
2023-01-13T16:19:46.106Z,98336.91
2023-01-13T16:22:14.386Z,98325.53
2023-01-13T16:24:42.015Z,98326.50
2023-01-13T16:27:15.902Z,98331.91
2023-01-13T16:29:43.423Z,98328.47
2023-01-13T16:32:10.235Z,98326.50
2023-01-13T16:34:37.377Z,98327.63
2023-01-13T16:37:04.313Z,98333.97
2023-01-13T16:39:31.364Z,98339.50
2023-01-13T16:41:58.207Z,98346.59
2023-01-13T16:44:25.367Z,98346.00
2023-01-13T16:46:52.233Z,98343.06
2023-01-13T16:49:19.358Z,98350.50
2023-01-13T16:51:46.220Z,98347.81
2023-01-13T16:54:13.431Z,98352.22
2023-01-13T16:56:40.267Z,98351.50
2023-01-13T16:59:17.033Z,98354.44
2023-01-13T17:01:45.048Z,98347.19
2023-01-13T17:04:17.126Z,98342.81
2023-01-13T17:06:46.945Z,98352.34
2023-01-13T17:09:18.722Z,98349.03
2023-01-13T17:11:45.474Z,98347.44
2023-01-13T17:14:18.470Z,98351.72
2023-01-13T17:16:46.731Z,98359.19
2023-01-13T17:19:14.181Z,98355.78
2023-01-13T17:21:41.181Z,98351.25
2023-01-13T17:24:09.660Z,98347.09
2023-01-13T17:26:38.148Z,98357.13
2023-01-13T17:29:06.555Z,98368.72
2023-01-13T17:31:34.240Z,98375.34
2023-01-13T17:34:01.933Z,98374.63
2023-01-13T17:36:28.747Z,98380.00
2023-01-13T17:38:56.037Z,98381.09
2023-01-13T17:41:23.449Z,98373.00
2023-01-13T17:43:50.742Z,98372.28
2023-01-13T17:46:18.662Z,98371.94
2023-01-13T17:48:54.876Z,98377.66
2023-01-13T17:51:22.950Z,98379.75
2023-01-13T17:53:50.055Z,98382.16
2023-01-13T17:56:17.243Z,98392.19
2023-01-13T17:58:47.169Z,98391.75
2023-01-13T18:01:16.364Z,98391.34
2023-01-13T18:03:43.557Z,98397.72
2023-01-13T18:06:16.572Z,98403.22
2023-01-13T18:08:43.639Z,98400.06
2023-01-13T18:11:10.493Z,98408.25
2023-01-13T18:13:38.965Z,98425.47
2023-01-13T18:16:16.257Z,98422.16
2023-01-13T18:18:44.385Z,98426.81
2023-01-13T18:21:39.914Z,98434.28
2023-01-13T18:24:31.146Z,98439.66
2023-01-13T18:27:16.479Z,98429.97
2023-01-13T18:29:43.684Z,98426.56
2023-01-13T18:32:10.590Z,98421.69
2023-01-13T18:34:38.142Z,98421.69
2023-01-13T18:37:06.210Z,98417.16
2023-01-13T18:39:33.307Z,98422.66
2023-01-13T18:42:18.803Z,98419.22
2023-01-13T18:44:45.907Z,98421.69
2023-01-13T18:47:12.672Z,98431.94
2023-01-13T18:49:39.741Z,98445.28
2023-01-13T18:52:06.506Z,98450.31
2023-01-13T18:54:33.791Z,98459.56
2023-01-13T18:57:02.816Z,98456.03
2023-01-13T18:59:30.041Z,98458.00
2023-01-13T19:01:58.024Z,98452.75
2023-01-13T19:04:25.250Z,98450.41
2023-01-13T19:06:52.128Z,98458.47
2023-01-13T19:09:22.766Z,98462.00
2023-01-13T19:11:50.531Z,98481.09
2023-01-13T19:14:34.103Z,98490.84
2023-01-13T19:17:02.437Z,98500.88
2023-01-13T19:19:31.513Z,98499.41
2023-01-13T19:21:58.360Z,98499.28
2023-01-13T19:24:28.267Z,98510.78
2023-01-13T19:26:55.139Z,98514.06
2023-01-13T19:29:22.334Z,98506.34
2023-01-13T19:31:49.156Z,98507.94
2023-01-13T19:34:16.424Z,98503.63
2023-01-13T19:36:43.401Z,98499.16
2023-01-13T19:39:10.536Z,98504.75
2023-01-13T19:42:00.560Z,98509.13
2023-01-13T19:44:46.296Z,98504.88
2023-01-13T19:47:13.099Z,98506.81
2023-01-13T19:49:40.245Z,98508.91
2023-01-13T19:52:07.130Z,98513.66
2023-01-13T19:54:34.300Z,98513.88
2023-01-13T19:57:01.232Z,98513.16
2023-01-13T19:59:32.511Z,98520.38
2023-01-13T20:02:00.669Z,98516.59
2023-01-13T20:04:38.423Z,98511.44
2023-01-13T20:07:05.981Z,98528.44
2023-01-13T20:09:34.042Z,98535.75
2023-01-13T20:12:06.795Z,98542.97
2023-01-13T20:14:33.894Z,98538.69
2023-01-13T20:17:01.288Z,98549.66
2023-01-13T20:19:28.406Z,98537.91
2023-01-13T20:21:55.241Z,98549.66
2023-01-13T20:24:23.284Z,98557.94
2023-01-13T20:26:50.109Z,98549.25
2023-01-13T20:29:17.204Z,98559.03
2023-01-13T20:31:44.105Z,98561.59
2023-01-13T20:34:11.196Z,98569.03
2023-01-13T20:36:39.060Z,98568.09
2023-01-13T20:39:06.695Z,98567.09
2023-01-13T20:41:52.107Z,98573.47
2023-01-13T20:44:19.407Z,98568.94
2023-01-13T20:46:46.290Z,98577.84
2023-01-13T20:49:13.951Z,98575.16
2023-01-13T20:51:41.623Z,98581.63
2023-01-13T20:54:09.295Z,98578.22
2023-01-13T20:56:36.643Z,98575.63
2023-01-13T20:59:03.848Z,98580.41
2023-01-13T21:01:32.251Z,98587.75
2023-01-13T21:04:00.001Z,98584.53
2023-01-13T21:06:27.990Z,98590.75
2023-01-13T21:08:55.850Z,98588.97
2023-01-13T21:11:42.529Z,98588.19
2023-01-13T21:14:35.988Z,98597.34
2023-01-13T21:17:03.305Z,98592.09
2023-01-13T21:19:30.210Z,98599.41
2023-01-13T21:21:57.287Z,98607.69
2023-01-13T21:24:24.880Z,98608.31
2023-01-13T21:27:01.071Z,98612.63
2023-01-13T21:29:27.929Z,98622.19
2023-01-13T21:31:56.208Z,98624.25
2023-01-13T21:34:23.013Z,98630.94
2023-01-13T21:36:50.106Z,98633.72
2023-01-13T21:39:16.926Z,98626.28
2023-01-13T21:42:02.655Z,98630.56
2023-01-13T21:44:48.170Z,98645.09
2023-01-13T21:47:34.299Z,98634.56
2023-01-13T21:50:01.434Z,98640.28
2023-01-13T21:52:28.615Z,98631.25
2023-01-13T21:55:14.076Z,98634.03
2023-01-13T21:57:41.093Z,98639.53
2023-01-13T22:00:08.583Z,98643.41
2023-01-13T22:02:36.525Z,98644.38
2023-01-13T22:05:04.843Z,98639.97
2023-01-13T22:07:34.713Z,98639.00
2023-01-13T22:10:03.619Z,98636.31
2023-01-13T22:12:30.789Z,98641.06
2023-01-13T22:14:57.610Z,98646.44
2023-01-13T22:17:26.063Z,98636.63
2023-01-13T22:19:54.300Z,98634.94
2023-01-13T22:22:21.644Z,98634.94
2023-01-13T22:24:49.914Z,98631.38
2023-01-13T22:27:22.057Z,98642.13
2023-01-13T22:29:49.668Z,98643.84
2023-01-13T22:32:16.795Z,98641.38
2023-01-13T22:34:43.640Z,98636.00
2023-01-13T22:37:10.875Z,98630.09
2023-01-13T22:39:37.950Z,98641.47
2023-01-13T22:42:05.304Z,98649.66
2023-01-13T22:44:32.946Z,98652.44
2023-01-13T22:47:00.284Z,98659.66
2023-01-13T22:49:27.157Z,98661.38
2023-01-13T22:51:54.399Z,98653.06
2023-01-13T22:54:21.558Z,98655.13
2023-01-13T22:56:48.691Z,98660.50
2023-01-13T22:59:16.099Z,98663.94
2023-01-13T23:01:43.532Z,98661.25
2023-01-13T23:04:11.840Z,98654.16
2023-01-13T23:06:39.076Z,98651.59
2023-01-13T23:09:06.102Z,98658.78
2023-01-13T23:11:33.295Z,98662.34
2023-01-13T23:14:02.084Z,98656.97
2023-01-13T23:16:29.741Z,98663.28
2023-01-13T23:21:41.087Z,98677.16
2023-01-13T23:24:08.099Z,98681.69
2023-01-13T23:26:35.365Z,98681.56
2023-01-13T23:29:04.511Z,98676.94
2023-01-13T23:31:31.677Z,98692.75
2023-01-13T23:33:58.568Z,98680.31
2023-01-13T23:36:26.420Z,98684.56
2023-01-13T23:38:53.314Z,98690.28
2023-01-13T23:41:31.707Z,98688.47
2023-01-13T23:43:59.932Z,98682.09
2023-01-13T23:46:28.482Z,98678.78
2023-01-13T23:48:55.616Z,98686.72
2023-01-13T23:51:22.870Z,98687.59
2023-01-13T23:53:50.142Z,98689.69
2023-01-13T23:56:19.217Z,98697.69
2023-01-13T23:58:46.240Z,98683.59
